createdAt,value
2019-05-22T00:00:24.870Z,1003.39
2019-05-22T00:01:24.822Z,1003.32
2019-05-22T00:02:24.865Z,1003.36
2019-05-22T00:03:24.846Z,1003.37
2019-05-22T00:04:24.847Z,1003.39
2019-05-22T00:05:24.840Z,1003.45
2019-05-22T00:06:24.780Z,1003.41
2019-05-22T00:07:24.744Z,1003.41
2019-05-22T00:08:24.771Z,1003.42
2019-05-22T00:09:24.761Z,1003.43
2019-05-22T00:10:24.774Z,1003.46
2019-05-22T00:11:24.709Z,1003.47
2019-05-22T00:12:24.760Z,1003.54
2019-05-22T00:13:24.671Z,1003.54
2019-05-22T00:14:24.700Z,1003.55
2019-05-22T00:15:24.723Z,1003.55
2019-05-22T00:16:24.720Z,1003.59
2019-05-22T00:17:24.626Z,1003.60
2019-05-22T00:18:24.637Z,1003.55
2019-05-22T00:19:24.746Z,1003.64
2019-05-22T00:20:24.601Z,1003.58
2019-05-22T00:21:24.628Z,1003.57
2019-05-22T00:22:24.637Z,1003.60
2019-05-22T00:23:24.571Z,1003.59
2019-05-22T00:24:24.570Z,1003.54
2019-05-22T00:25:24.605Z,1003.59
2019-05-22T00:26:24.622Z,1003.64
2019-05-22T00:27:24.514Z,1003.57
2019-05-22T00:28:24.533Z,1003.63
2019-05-22T00:29:24.537Z,1003.68
2019-05-22T00:30:24.575Z,1003.68
2019-05-22T00:31:24.527Z,1003.65
2019-05-22T00:32:24.482Z,1003.61
2019-05-22T00:33:24.475Z,1003.61
2019-05-22T00:34:24.460Z,1003.65
2019-05-22T00:35:24.616Z,1003.64
2019-05-22T00:36:24.436Z,1003.62
2019-05-22T00:37:24.464Z,1003.61
2019-05-22T00:38:24.432Z,1003.65
2019-05-22T00:39:24.416Z,1003.66
2019-05-22T00:40:24.375Z,1003.70
2019-05-22T00:41:24.380Z,1003.68
2019-05-22T00:42:24.403Z,1003.70
2019-05-22T00:43:24.352Z,1003.73
2019-05-22T00:44:24.340Z,1003.72
2019-05-22T00:45:24.350Z,1003.75
2019-05-22T00:46:24.318Z,1003.76
2019-05-22T00:47:24.327Z,1003.74
2019-05-22T00:48:24.365Z,1003.77
2019-05-22T00:49:24.328Z,1003.75
2019-05-22T00:50:24.926Z,1003.74
2019-05-22T00:51:24.290Z,1003.74
2019-05-22T00:52:24.279Z,1003.79
2019-05-22T00:53:24.263Z,1003.78
2019-05-22T00:54:24.245Z,1003.79
2019-05-22T00:55:24.228Z,1003.83
2019-05-22T00:56:24.213Z,1003.88
2019-05-22T00:57:24.207Z,1003.88
2019-05-22T00:58:24.218Z,1003.86
2019-05-22T00:59:24.210Z,1003.96
2019-05-22T01:00:24.166Z,1003.92
2019-05-22T01:01:24.160Z,1003.96
2019-05-22T01:02:24.166Z,1003.95
2019-05-22T01:03:24.184Z,1003.96
2019-05-22T01:04:24.237Z,1003.95
2019-05-22T01:05:24.181Z,1003.97
2019-05-22T01:06:24.105Z,1004.02
2019-05-22T01:07:24.091Z,1004.00
2019-05-22T01:08:24.098Z,1003.99
2019-05-22T01:09:24.135Z,1004.02
2019-05-22T01:10:24.073Z,1004.05
2019-05-22T01:11:24.096Z,1004.02
2019-05-22T01:12:24.092Z,1004.06
2019-05-22T01:13:24.039Z,1004.03
2019-05-22T01:14:24.099Z,1004.07
2019-05-22T01:15:24.041Z,1004.02
2019-05-22T01:16:24.025Z,1004.05
2019-05-22T01:17:24.012Z,1004.05
2019-05-22T01:18:24.048Z,1004.05
2019-05-22T01:19:24.024Z,1004.04
2019-05-22T01:20:23.986Z,1004.04
2019-05-22T01:21:24.032Z,1004.02
2019-05-22T01:22:23.959Z,1004.05
2019-05-22T01:23:23.904Z,1004.06
2019-05-22T01:24:23.943Z,1004.05
2019-05-22T01:25:23.951Z,1004.05
2019-05-22T01:26:23.909Z,1004.07
2019-05-22T01:27:23.894Z,1004.05
2019-05-22T01:28:23.942Z,1004.03
2019-05-22T01:29:24.436Z,1004.07
2019-05-22T01:30:23.934Z,1004.08
2019-05-22T01:31:23.853Z,1004.15
2019-05-22T01:32:23.854Z,1004.05
2019-05-22T01:33:23.871Z,1004.16
2019-05-22T01:34:23.825Z,1004.17
2019-05-22T01:35:23.854Z,1004.17
2019-05-22T01:36:23.833Z,1004.19
2019-05-22T01:37:23.803Z,1004.16
2019-05-22T01:38:23.798Z,1004.14
2019-05-22T01:39:23.756Z,1004.19
2019-05-22T01:40:23.864Z,1004.18
2019-05-22T01:41:23.752Z,1004.19
2019-05-22T01:42:23.773Z,1004.16
2019-05-22T01:43:23.728Z,1004.17
2019-05-22T01:44:23.711Z,1004.16
2019-05-22T01:45:23.698Z,1004.16
2019-05-22T01:46:23.783Z,1004.16
2019-05-22T01:47:23.659Z,1004.19
2019-05-22T01:48:23.665Z,1004.20
2019-05-22T01:49:24.438Z,1004.20
2019-05-22T01:50:23.690Z,1004.21
2019-05-22T01:51:23.655Z,1004.24
2019-05-22T01:52:23.689Z,1004.19
2019-05-22T01:53:23.600Z,1004.18
2019-05-22T01:54:24.558Z,1004.20
2019-05-22T01:55:23.578Z,1004.20
2019-05-22T01:56:23.682Z,1004.23
2019-05-22T01:57:23.585Z,1004.27
2019-05-22T01:58:23.587Z,1004.27
2019-05-22T01:59:27.122Z,1004.24
2019-05-22T02:00:24.441Z,1004.26
2019-05-22T02:01:23.582Z,1004.24
2019-05-22T02:02:23.515Z,1004.24
2019-05-22T02:03:24.442Z,1004.17
2019-05-22T02:04:23.532Z,1004.24
2019-05-22T02:05:23.492Z,1004.23
2019-05-22T02:06:23.463Z,1004.22
2019-05-22T02:07:23.456Z,1004.24
2019-05-22T02:08:23.561Z,1004.24
2019-05-22T02:09:23.563Z,1004.24
2019-05-22T02:10:23.506Z,1004.25
2019-05-22T02:11:23.443Z,1004.23
2019-05-22T02:12:23.419Z,1004.21
2019-05-22T02:13:23.387Z,1004.20
2019-05-22T02:14:23.388Z,1004.18
2019-05-22T02:15:23.641Z,1004.24
2019-05-22T02:16:23.374Z,1004.25
2019-05-22T02:17:23.339Z,1004.23
2019-05-22T02:18:23.325Z,1004.23
2019-05-22T02:19:23.338Z,1004.25
2019-05-22T02:20:23.339Z,1004.29
2019-05-22T02:21:23.314Z,1004.33
2019-05-22T02:22:23.288Z,1004.27
2019-05-22T02:23:23.280Z,1004.29
2019-05-22T02:24:23.285Z,1004.27
2019-05-22T02:25:23.273Z,1004.29
2019-05-22T02:26:23.261Z,1004.26
2019-05-22T02:27:23.237Z,1004.32
2019-05-22T02:28:23.224Z,1004.31
2019-05-22T02:29:23.209Z,1004.32
2019-05-22T02:30:23.261Z,1004.34
2019-05-22T02:31:23.224Z,1004.32
2019-05-22T02:32:23.206Z,1004.35
2019-05-22T02:33:23.181Z,1004.37
2019-05-22T02:34:23.145Z,1004.34
2019-05-22T02:35:23.135Z,1004.37
2019-05-22T02:36:23.177Z,1004.34
2019-05-22T02:37:32.582Z,1004.38
2019-05-22T02:38:33.094Z,1004.34
2019-05-22T02:39:23.086Z,1004.37
2019-05-22T02:40:32.637Z,1004.36
2019-05-22T02:41:31.663Z,1004.41
2019-05-22T02:42:32.692Z,1004.37
2019-05-22T02:43:32.234Z,1004.37
2019-05-22T02:44:32.246Z,1004.37
2019-05-22T02:45:23.060Z,1004.40
2019-05-22T02:46:23.094Z,1004.37
2019-05-22T02:47:23.048Z,1004.39
2019-05-22T02:48:23.015Z,1004.41
2019-05-22T02:49:23.003Z,1004.34
2019-05-22T02:50:23.031Z,1004.39
2019-05-22T02:51:22.991Z,1004.36
2019-05-22T02:52:22.969Z,1004.35
2019-05-22T02:53:22.998Z,1004.39
2019-05-22T02:54:22.943Z,1004.40
2019-05-22T02:55:22.929Z,1004.43
2019-05-22T02:56:22.954Z,1004.44
2019-05-22T02:57:22.922Z,1004.46
2019-05-22T02:58:23.004Z,1004.46
2019-05-22T02:59:22.882Z,1004.42
2019-05-22T03:00:22.915Z,1004.47
2019-05-22T03:01:22.869Z,1004.47
2019-05-22T03:02:22.867Z,1004.50
2019-05-22T03:03:22.859Z,1004.51
2019-05-22T03:04:22.885Z,1004.51
2019-05-22T03:05:22.871Z,1004.56
2019-05-22T03:06:22.838Z,1004.53
2019-05-22T03:07:22.804Z,1004.58
2019-05-22T03:08:22.787Z,1004.55
2019-05-22T03:09:22.799Z,1004.60
2019-05-22T03:10:22.845Z,1004.59
2019-05-22T03:11:22.762Z,1004.59
2019-05-22T03:12:22.776Z,1004.60
2019-05-22T03:13:22.809Z,1004.66
2019-05-22T03:14:22.772Z,1004.63
2019-05-22T03:15:22.814Z,1004.65
2019-05-22T03:16:22.702Z,1004.67
2019-05-22T03:17:22.710Z,1004.63
2019-05-22T03:18:22.734Z,1004.61
2019-05-22T03:19:22.676Z,1004.64
2019-05-22T03:20:22.686Z,1004.62
2019-05-22T03:21:22.702Z,1004.62
2019-05-22T03:22:22.650Z,1004.68
2019-05-22T03:23:22.628Z,1004.68
2019-05-22T03:24:22.611Z,1004.66
2019-05-22T03:25:22.682Z,1004.66
2019-05-22T03:26:22.658Z,1004.68
2019-05-22T03:27:22.616Z,1004.67
2019-05-22T03:28:22.695Z,1004.74
2019-05-22T03:29:22.594Z,1004.67
2019-05-22T03:30:22.635Z,1004.70
2019-05-22T03:31:22.552Z,1004.70
2019-05-22T03:32:22.561Z,1004.70
2019-05-22T03:33:22.538Z,1004.72
2019-05-22T03:34:22.506Z,1004.71
2019-05-22T03:35:22.561Z,1004.71
2019-05-22T03:36:22.528Z,1004.67
2019-05-22T03:37:22.496Z,1004.70
2019-05-22T03:38:22.473Z,1004.66
2019-05-22T03:39:22.466Z,1004.74
2019-05-22T03:40:22.464Z,1004.76
2019-05-22T03:41:22.428Z,1004.72
2019-05-22T03:42:22.481Z,1004.77
2019-05-22T03:43:22.437Z,1004.77
2019-05-22T03:44:22.411Z,1004.78
2019-05-22T03:45:22.466Z,1004.76
2019-05-22T03:46:22.499Z,1004.80
2019-05-22T03:47:22.385Z,1004.78
2019-05-22T03:48:22.402Z,1004.80
2019-05-22T03:49:31.054Z,1004.78
2019-05-22T03:50:23.329Z,1004.82
2019-05-22T03:51:22.470Z,1004.83
2019-05-22T03:52:22.320Z,1004.89
2019-05-22T03:53:22.348Z,1004.77
2019-05-22T03:54:22.330Z,1004.88
2019-05-22T03:55:22.295Z,1004.89
2019-05-22T03:56:22.318Z,1004.90
2019-05-22T03:57:22.299Z,1004.90
2019-05-22T03:58:22.298Z,1004.94
2019-05-22T03:59:22.299Z,1004.94
2019-05-22T04:00:22.259Z,1004.94
2019-05-22T04:01:22.243Z,1004.91
2019-05-22T04:02:22.241Z,1004.92
2019-05-22T04:03:22.230Z,1004.99
2019-05-22T04:04:22.377Z,1004.95
2019-05-22T04:05:22.248Z,1004.96
2019-05-22T04:06:22.704Z,1004.99
2019-05-22T04:07:22.194Z,1004.93
2019-05-22T04:08:22.218Z,1005.00
2019-05-22T04:09:22.458Z,1005.01
2019-05-22T04:10:22.137Z,1004.99
2019-05-22T04:11:22.135Z,1004.99
2019-05-22T04:12:22.129Z,1005.03
2019-05-22T04:13:22.148Z,1005.05
2019-05-22T04:14:22.120Z,1005.06
2019-05-22T04:15:22.790Z,1005.05
2019-05-22T04:16:22.078Z,1005.05
2019-05-22T04:17:22.158Z,1005.06
2019-05-22T04:18:22.991Z,1005.07
2019-05-22T04:19:22.101Z,1005.02
2019-05-22T04:20:22.063Z,1005.07
2019-05-22T04:21:22.059Z,1005.07
2019-05-22T04:22:22.061Z,1005.08
2019-05-22T04:23:22.015Z,1005.09
2019-05-22T04:24:22.014Z,1005.13
2019-05-22T04:25:21.988Z,1005.12
2019-05-22T04:26:22.132Z,1005.10
2019-05-22T04:27:22.172Z,1005.17
2019-05-22T04:28:22.113Z,1005.21
2019-05-22T04:29:22.060Z,1005.21
2019-05-22T04:30:21.926Z,1005.19
2019-05-22T04:31:21.971Z,1005.17
2019-05-22T04:32:22.036Z,1005.19
2019-05-22T04:33:22.048Z,1005.15
2019-05-22T04:34:21.887Z,1005.20
2019-05-22T04:35:21.992Z,1005.14
2019-05-22T04:36:21.910Z,1005.21
2019-05-22T04:37:21.966Z,1005.16
2019-05-22T04:38:21.988Z,1005.16
2019-05-22T04:39:21.862Z,1005.18
2019-05-22T04:40:21.873Z,1005.17
2019-05-22T04:41:21.837Z,1005.20
2019-05-22T04:42:21.810Z,1005.16
2019-05-22T04:43:21.778Z,1005.22
2019-05-22T04:44:21.793Z,1005.22
2019-05-22T04:45:21.977Z,1005.17
2019-05-22T04:46:22.303Z,1005.28
2019-05-22T04:47:21.780Z,1005.26
2019-05-22T04:48:21.755Z,1005.16
2019-05-22T04:49:21.735Z,1005.29
2019-05-22T04:50:22.212Z,1005.29
2019-05-22T04:51:21.703Z,1005.28
2019-05-22T04:52:21.770Z,1005.23
2019-05-22T04:53:21.679Z,1005.31
2019-05-22T04:54:21.669Z,1005.31
2019-05-22T04:55:21.709Z,1005.29
2019-05-22T04:56:21.619Z,1005.38
2019-05-22T04:57:21.655Z,1005.32
2019-05-22T04:58:21.669Z,1005.37
2019-05-22T04:59:21.632Z,1005.31
2019-05-22T05:00:21.656Z,1005.32
2019-05-22T05:01:21.668Z,1005.26
2019-05-22T05:02:21.596Z,1005.28
2019-05-22T05:03:21.642Z,1005.33
2019-05-22T05:04:21.602Z,1005.31
2019-05-22T05:05:21.613Z,1005.32
2019-05-22T05:06:22.215Z,1005.31
2019-05-22T05:07:22.219Z,1005.35
2019-05-22T05:08:21.531Z,1005.34
2019-05-22T05:09:21.521Z,1005.36
2019-05-22T05:10:21.516Z,1005.38
2019-05-22T05:11:21.492Z,1005.38
2019-05-22T05:12:22.726Z,1005.41
2019-05-22T05:13:21.540Z,1005.36
2019-05-22T05:14:21.484Z,1005.39
2019-05-22T05:15:21.453Z,1005.43
2019-05-22T05:16:22.729Z,1005.45
2019-05-22T05:18:42.607Z,1005.47
2019-05-22T05:19:42.331Z,1005.46
2019-05-22T05:20:42.324Z,1005.53
2019-05-22T05:21:43.013Z,1005.44
2019-05-22T05:22:44.634Z,1005.51
2019-05-22T05:23:42.374Z,1005.49
2019-05-22T05:24:43.137Z,1005.47
2019-05-22T05:25:43.254Z,1005.51
2019-05-22T05:26:42.276Z,1005.51
2019-05-22T05:27:42.169Z,1005.56
2019-05-22T05:28:43.254Z,1005.57
2019-05-22T05:29:45.328Z,1005.57
2019-05-22T05:30:42.261Z,1005.61
2019-05-22T05:31:42.168Z,1005.61
2019-05-22T05:32:42.213Z,1005.56
2019-05-22T05:33:42.142Z,1005.57
2019-05-22T05:34:45.276Z,1005.56
2019-05-22T05:35:42.109Z,1005.53
2019-05-22T05:36:42.249Z,1005.53
2019-05-22T05:37:43.753Z,1005.57
2019-05-22T05:38:42.069Z,1005.56
2019-05-22T05:39:42.081Z,1005.56
2019-05-22T05:40:42.033Z,1005.61
2019-05-22T05:41:42.046Z,1005.60
2019-05-22T05:42:42.037Z,1005.54
2019-05-22T05:43:42.009Z,1005.60
2019-05-22T05:44:42.025Z,1005.61
2019-05-22T05:45:42.041Z,1005.65
2019-05-22T05:46:41.968Z,1005.65
2019-05-22T05:47:41.974Z,1005.65
2019-05-22T05:48:41.934Z,1005.64
2019-05-22T05:49:41.927Z,1005.63
2019-05-22T05:50:41.947Z,1005.64
2019-05-22T05:51:41.913Z,1005.66
2019-05-22T05:52:41.883Z,1005.58
2019-05-22T05:53:41.870Z,1005.62
2019-05-22T05:54:41.948Z,1005.59
2019-05-22T05:55:42.451Z,1005.59
2019-05-22T05:56:41.917Z,1005.65
2019-05-22T05:57:41.923Z,1005.66
2019-05-22T05:58:41.847Z,1005.67
2019-05-22T05:59:41.900Z,1005.65
2019-05-22T06:00:44.585Z,1005.63
2019-05-22T06:01:41.864Z,1005.59
2019-05-22T06:02:55.700Z,1005.68
2019-05-22T06:03:42.852Z,1005.63
2019-05-22T06:04:41.842Z,1005.65
2019-05-22T06:05:41.898Z,1005.66
2019-05-22T06:06:41.835Z,1005.70
2019-05-22T06:07:42.023Z,1005.65
2019-05-22T06:08:41.785Z,1005.68
2019-05-22T06:09:41.783Z,1005.67
2019-05-22T06:10:41.770Z,1005.73
2019-05-22T06:11:41.726Z,1005.74
2019-05-22T06:12:41.727Z,1005.74
2019-05-22T06:13:41.697Z,1005.79
2019-05-22T06:14:41.670Z,1005.80
2019-05-22T06:15:46.977Z,1005.75
2019-05-22T06:16:42.637Z,1005.81
2019-05-22T06:17:41.745Z,1005.78
2019-05-22T06:18:41.616Z,1005.72
2019-05-22T06:19:41.635Z,1005.76
2019-05-22T06:20:41.600Z,1005.82
2019-05-22T06:21:41.584Z,1005.79
2019-05-22T06:22:42.366Z,1005.77
2019-05-22T06:23:41.762Z,1005.82
2019-05-22T06:24:41.595Z,1005.86
2019-05-22T06:25:41.531Z,1005.89
2019-05-22T06:26:41.550Z,1005.92
2019-05-22T06:27:41.552Z,1005.91
2019-05-22T06:28:41.608Z,1005.89
2019-05-22T06:29:41.541Z,1005.98
2019-05-22T06:30:41.497Z,1005.94
2019-05-22T06:31:41.505Z,1005.98
2019-05-22T06:32:41.690Z,1006.03
2019-05-22T06:33:41.509Z,1006.01
2019-05-22T06:34:41.505Z,1006.02
2019-05-22T06:35:41.465Z,1006.06
2019-05-22T06:36:41.632Z,1006.10
2019-05-22T06:37:41.469Z,1006.10
2019-05-22T06:38:41.531Z,1006.13
2019-05-22T06:39:41.480Z,1006.15
2019-05-22T06:40:41.423Z,1006.10
2019-05-22T06:41:41.415Z,1006.12
2019-05-22T06:42:41.445Z,1006.08
2019-05-22T06:43:41.412Z,1006.10
2019-05-22T06:44:41.457Z,1006.10
2019-05-22T06:45:41.384Z,1006.05
2019-05-22T06:46:41.426Z,1006.09
2019-05-22T06:47:41.320Z,1006.03
2019-05-22T06:48:41.339Z,1006.07
2019-05-22T06:49:41.304Z,1006.07
2019-05-22T06:50:41.315Z,1006.06
2019-05-22T06:51:41.292Z,1006.10
2019-05-22T06:52:41.262Z,1006.09
2019-05-22T06:53:41.261Z,1006.16
2019-05-22T06:54:41.260Z,1006.12
2019-05-22T06:55:41.280Z,1006.11
2019-05-22T06:56:41.264Z,1006.16
2019-05-22T06:57:41.228Z,1006.15
2019-05-22T06:58:41.181Z,1006.21
2019-05-22T06:59:41.215Z,1006.21
2019-05-22T07:00:41.180Z,1006.23
2019-05-22T07:01:41.272Z,1006.23
2019-05-22T07:02:41.178Z,1006.26
2019-05-22T07:03:41.167Z,1006.29
2019-05-22T07:04:41.132Z,1006.27
2019-05-22T07:05:41.135Z,1006.28
2019-05-22T07:06:41.144Z,1006.27
2019-05-22T07:07:41.113Z,1006.26
2019-05-22T07:08:41.775Z,1006.32
2019-05-22T07:09:41.099Z,1006.27
2019-05-22T07:10:41.098Z,1006.27
2019-05-22T07:11:41.053Z,1006.42
2019-05-22T07:12:41.110Z,1006.30
2019-05-22T07:13:41.064Z,1006.33
2019-05-22T07:14:41.046Z,1006.35
2019-05-22T07:15:41.074Z,1006.33
2019-05-22T07:16:41.037Z,1006.36
2019-05-22T07:17:41.026Z,1006.35
2019-05-22T07:18:41.024Z,1006.38
2019-05-22T07:19:41.006Z,1006.43
2019-05-22T07:20:40.998Z,1006.36
2019-05-22T07:21:40.936Z,1006.40
2019-05-22T07:22:41.007Z,1006.36
2019-05-22T07:23:40.929Z,1006.38
2019-05-22T07:24:40.921Z,1006.38
2019-05-22T07:25:40.974Z,1006.42
2019-05-22T07:26:40.901Z,1006.43
2019-05-22T07:27:40.908Z,1006.35
2019-05-22T07:28:40.921Z,1006.35
2019-05-22T07:29:41.958Z,1006.33
2019-05-22T07:30:40.894Z,1006.39
2019-05-22T07:31:40.860Z,1006.33
2019-05-22T07:32:40.871Z,1006.35
2019-05-22T07:33:40.841Z,1006.32
2019-05-22T07:34:40.838Z,1006.37
2019-05-22T07:36:04.818Z,1006.41
2019-05-22T07:36:41.837Z,1006.43
2019-05-22T07:37:40.774Z,1006.44
2019-05-22T07:38:40.756Z,1006.47
2019-05-22T07:39:40.757Z,1006.48
2019-05-22T07:40:40.765Z,1006.46
2019-05-22T07:41:40.774Z,1006.47
2019-05-22T07:42:40.785Z,1006.47
2019-05-22T07:43:41.918Z,1006.49
2019-05-22T07:44:40.719Z,1006.49
2019-05-22T07:45:40.868Z,1006.44
2019-05-22T07:46:40.683Z,1006.44
2019-05-22T07:47:40.752Z,1006.49
2019-05-22T07:48:40.673Z,1006.43
2019-05-22T07:49:40.636Z,1006.44
2019-05-22T07:50:40.673Z,1006.44
2019-05-22T07:51:52.003Z,1006.45
2019-05-22T07:52:41.654Z,1006.49
2019-05-22T07:53:40.638Z,1006.58
2019-05-22T07:54:40.598Z,1006.59
2019-05-22T07:55:40.656Z,1006.54
2019-05-22T07:56:40.562Z,1006.60
2019-05-22T07:57:40.675Z,1006.59
2019-05-22T07:58:40.572Z,1006.63
2019-05-22T07:59:40.566Z,1006.65
2019-05-22T08:00:40.601Z,1006.60
2019-05-22T08:01:40.625Z,1006.76
2019-05-22T08:02:40.524Z,1006.77
2019-05-22T08:03:41.287Z,1006.78
2019-05-22T08:04:40.583Z,1006.77
2019-05-22T08:05:41.359Z,1006.73
2019-05-22T08:06:41.299Z,1006.73
2019-05-22T08:07:40.527Z,1006.80
2019-05-22T08:08:40.567Z,1006.80
2019-05-22T08:09:40.450Z,1006.82
2019-05-22T08:10:40.451Z,1006.79
2019-05-22T08:11:40.408Z,1006.82
2019-05-22T08:12:40.464Z,1006.84
2019-05-22T08:13:40.478Z,1006.77
2019-05-22T08:14:40.446Z,1006.78
2019-05-22T08:15:40.373Z,1006.71
2019-05-22T08:16:40.349Z,1006.70
2019-05-22T08:17:40.340Z,1006.71
2019-05-22T08:18:40.371Z,1006.68
2019-05-22T08:19:40.593Z,1006.67
2019-05-22T08:20:40.368Z,1006.64
2019-05-22T08:21:40.342Z,1006.73
2019-05-22T08:22:40.354Z,1006.75
2019-05-22T08:23:40.363Z,1006.74
2019-05-22T08:24:40.284Z,1006.75
2019-05-22T08:25:40.802Z,1006.76
2019-05-22T08:26:53.372Z,1006.77
2019-05-22T08:27:41.266Z,1006.76
2019-05-22T08:28:40.224Z,1006.79
2019-05-22T08:29:40.238Z,1006.72
2019-05-22T08:30:40.239Z,1006.80
2019-05-22T08:31:40.368Z,1006.79
2019-05-22T08:32:40.220Z,1006.78
2019-05-22T08:33:40.208Z,1006.79
2019-05-22T08:34:40.336Z,1006.81
2019-05-22T08:35:40.847Z,1006.84
2019-05-22T08:36:40.187Z,1006.74
2019-05-22T08:37:40.805Z,1006.80
2019-05-22T08:38:40.256Z,1006.77
2019-05-22T08:39:40.139Z,1006.76
2019-05-22T08:40:40.139Z,1006.82
2019-05-22T08:41:40.113Z,1006.76
2019-05-22T08:42:40.143Z,1006.75
2019-05-22T08:44:03.290Z,1006.73
2019-05-22T08:44:41.057Z,1006.78
2019-05-22T08:45:40.037Z,1006.78
2019-05-22T08:46:50.398Z,1006.78
2019-05-22T08:47:40.011Z,1006.82
2019-05-22T08:48:46.956Z,1006.81
2019-05-22T08:49:40.991Z,1006.81
2019-05-22T08:50:39.991Z,1006.84
2019-05-22T08:51:39.973Z,1006.81
2019-05-22T08:52:40.005Z,1006.82
2019-05-22T08:53:47.253Z,1006.86
2019-05-22T08:54:40.968Z,1006.86
2019-05-22T08:55:39.999Z,1006.85
2019-05-22T08:56:39.953Z,1006.83
2019-05-22T08:57:39.956Z,1006.86
2019-05-22T08:58:39.915Z,1006.90
2019-05-22T08:59:39.897Z,1006.94
2019-05-22T09:00:39.895Z,1006.87
2019-05-22T09:01:39.889Z,1006.95
2019-05-22T09:02:39.931Z,1006.95
2019-05-22T09:03:39.925Z,1006.95
2019-05-22T09:04:39.851Z,1006.92
2019-05-22T09:05:39.855Z,1006.91
2019-05-22T09:06:39.909Z,1006.97
2019-05-22T09:07:39.794Z,1006.99
2019-05-22T09:08:39.830Z,1007.03
2019-05-22T09:09:39.805Z,1006.97
2019-05-22T09:10:39.786Z,1007.00
2019-05-22T09:11:39.787Z,1007.03
2019-05-22T09:12:39.763Z,1007.09
2019-05-22T09:13:39.738Z,1007.09
2019-05-22T09:14:39.735Z,1007.11
2019-05-22T09:15:39.710Z,1007.10
2019-05-22T09:16:39.696Z,1007.05
2019-05-22T09:17:39.693Z,1007.09
2019-05-22T09:18:39.708Z,1007.11
2019-05-22T09:19:39.699Z,1007.09
2019-05-22T09:20:48.780Z,1007.14
2019-05-22T09:21:40.796Z,1007.13
2019-05-22T09:22:41.330Z,1007.14
2019-05-22T09:23:39.652Z,1007.19
2019-05-22T09:24:39.657Z,1007.23
2019-05-22T09:25:39.603Z,1007.16
2019-05-22T09:26:39.652Z,1007.24
2019-05-22T09:27:39.585Z,1007.24
2019-05-22T09:28:39.609Z,1007.21
2019-05-22T09:29:39.565Z,1007.27
2019-05-22T09:30:39.587Z,1007.26
2019-05-22T09:31:39.701Z,1007.24
2019-05-22T09:32:39.521Z,1007.33
2019-05-22T09:33:39.575Z,1007.28
2019-05-22T09:34:39.558Z,1007.31
2019-05-22T09:35:39.490Z,1007.37
2019-05-22T09:36:39.511Z,1007.33
2019-05-22T09:37:39.477Z,1007.34
2019-05-22T09:38:39.462Z,1007.31
2019-05-22T09:39:39.450Z,1007.36
2019-05-22T09:40:39.471Z,1007.33
2019-05-22T09:41:39.444Z,1007.34
2019-05-22T09:42:39.446Z,1007.31
2019-05-22T09:43:39.443Z,1007.30
2019-05-22T09:44:39.409Z,1007.35
2019-05-22T09:45:39.392Z,1007.33
2019-05-22T09:46:39.388Z,1007.32
2019-05-22T09:47:39.374Z,1007.34
2019-05-22T09:48:39.374Z,1007.36
2019-05-22T09:49:39.345Z,1007.35
2019-05-22T09:50:39.343Z,1007.33
2019-05-22T09:51:39.375Z,1007.29
2019-05-22T09:52:39.380Z,1007.30
2019-05-22T09:53:39.329Z,1007.25
2019-05-22T09:54:39.438Z,1007.28
2019-05-22T09:55:39.288Z,1007.30
2019-05-22T09:56:39.308Z,1007.29
2019-05-22T09:57:39.279Z,1007.31
2019-05-22T09:58:39.255Z,1007.32
2019-05-22T09:59:39.257Z,1007.35
2019-05-22T10:00:39.255Z,1007.43
2019-05-22T10:01:39.229Z,1007.43
2019-05-22T10:02:39.234Z,1007.48
2019-05-22T10:03:39.190Z,1007.45
2019-05-22T10:04:39.197Z,1007.49
2019-05-22T10:05:39.232Z,1007.44
2019-05-22T10:06:39.188Z,1007.51
2019-05-22T10:07:56.990Z,1007.50
2019-05-22T10:08:40.224Z,1007.50
2019-05-22T10:09:39.135Z,1007.48
2019-05-22T10:10:39.145Z,1007.49
2019-05-22T10:11:39.148Z,1007.50
2019-05-22T10:12:39.100Z,1007.44
2019-05-22T10:13:39.418Z,1007.46
2019-05-22T10:14:39.132Z,1007.45
2019-05-22T10:15:39.070Z,1007.49
2019-05-22T10:16:39.151Z,1007.52
2019-05-22T10:17:39.063Z,1007.50
2019-05-22T10:18:39.059Z,1007.53
2019-05-22T10:19:39.024Z,1007.57
2019-05-22T10:20:39.086Z,1007.50
2019-05-22T10:21:39.003Z,1007.59
2019-05-22T10:22:38.987Z,1007.56
2019-05-22T10:23:38.989Z,1007.59
2019-05-22T10:24:38.977Z,1007.55
2019-05-22T10:25:38.956Z,1007.54
2019-05-22T10:26:38.942Z,1007.62
2019-05-22T10:27:38.941Z,1007.53
2019-05-22T10:28:38.943Z,1007.56
2019-05-22T10:29:38.923Z,1007.57
2019-05-22T10:30:38.935Z,1007.59
2019-05-22T10:31:38.897Z,1007.47
2019-05-22T10:32:38.881Z,1007.59
2019-05-22T10:33:38.882Z,1007.58
2019-05-22T10:34:38.857Z,1007.56
2019-05-22T10:35:38.852Z,1007.54
2019-05-22T10:36:38.881Z,1007.64
2019-05-22T10:37:38.848Z,1007.64
2019-05-22T10:38:38.810Z,1007.66
2019-05-22T10:39:38.820Z,1007.64
2019-05-22T10:40:38.798Z,1007.61
2019-05-22T10:41:38.778Z,1007.71
2019-05-22T10:42:38.782Z,1007.67
2019-05-22T10:43:38.756Z,1007.70
2019-05-22T10:44:38.753Z,1007.67
2019-05-22T10:45:38.748Z,1007.63
2019-05-22T10:46:38.765Z,1007.63
2019-05-22T10:47:38.744Z,1007.68
2019-05-22T10:48:40.420Z,1007.71
2019-05-22T10:49:38.685Z,1007.70
2019-05-22T10:50:38.675Z,1007.76
2019-05-22T10:51:38.680Z,1007.72
2019-05-22T10:52:38.676Z,1007.79
2019-05-22T10:53:38.650Z,1007.79
2019-05-22T10:54:38.663Z,1007.81
2019-05-22T10:55:38.659Z,1007.83
2019-05-22T10:56:38.634Z,1007.81
2019-05-22T10:57:41.010Z,1007.86
2019-05-22T10:58:38.623Z,1007.84
2019-05-22T10:59:38.595Z,1007.91
2019-05-22T11:00:38.578Z,1007.94
2019-05-22T11:01:38.604Z,1007.93
2019-05-22T11:02:38.604Z,1008.00
2019-05-22T11:03:38.545Z,1007.96
2019-05-22T11:04:38.562Z,1008.00
2019-05-22T11:05:38.529Z,1007.97
2019-05-22T11:06:38.513Z,1007.98
2019-05-22T11:07:38.505Z,1007.96
2019-05-22T11:08:38.512Z,1007.92
2019-05-22T11:09:38.502Z,1007.96
2019-05-22T11:10:38.480Z,1007.96
2019-05-22T11:11:38.460Z,1007.96
2019-05-22T11:12:38.656Z,1008.03
2019-05-22T11:13:38.505Z,1007.98
2019-05-22T11:14:38.469Z,1007.95
2019-05-22T11:15:38.419Z,1007.95
2019-05-22T11:16:38.398Z,1008.00
2019-05-22T11:17:38.395Z,1007.96
2019-05-22T11:18:38.416Z,1007.90
2019-05-22T11:19:38.387Z,1007.93
2019-05-22T11:20:38.365Z,1007.90
2019-05-22T11:21:38.361Z,1007.91
2019-05-22T11:22:38.338Z,1007.94
2019-05-22T11:23:51.145Z,1007.99
2019-05-22T11:24:39.350Z,1007.98
2019-05-22T11:25:38.320Z,1007.91
2019-05-22T11:26:38.301Z,1007.96
2019-05-22T11:27:38.308Z,1007.98
2019-05-22T11:28:38.285Z,1007.94
2019-05-22T11:29:38.308Z,1007.99
2019-05-22T11:30:38.268Z,1007.95
2019-05-22T11:31:38.262Z,1008.02
2019-05-22T11:32:38.272Z,1008.02
2019-05-22T11:33:38.368Z,1007.99
2019-05-22T11:34:38.224Z,1008.04
2019-05-22T11:35:38.238Z,1008.09
2019-05-22T11:36:38.248Z,1008.14
2019-05-22T11:37:38.207Z,1008.17
2019-05-22T11:38:38.204Z,1008.16
2019-05-22T11:39:40.323Z,1008.11
2019-05-22T11:40:39.180Z,1008.17
2019-05-22T11:41:38.157Z,1008.16
2019-05-22T11:42:38.149Z,1008.20
2019-05-22T11:43:38.189Z,1008.22
2019-05-22T11:44:38.115Z,1008.19
2019-05-22T11:45:38.152Z,1008.25
2019-05-22T11:46:45.599Z,1008.26
2019-05-22T11:47:38.052Z,1008.27
2019-05-22T11:48:38.064Z,1008.23
2019-05-22T11:49:38.053Z,1008.29
2019-05-22T11:50:38.063Z,1008.21
2019-05-22T11:51:38.048Z,1008.25
2019-05-22T11:52:38.010Z,1008.35
2019-05-22T11:53:38.082Z,1008.29
2019-05-22T11:54:38.016Z,1008.27
2019-05-22T11:55:45.298Z,1008.28
2019-05-22T11:56:39.002Z,1008.35
2019-05-22T11:57:37.979Z,1008.35
2019-05-22T11:58:37.955Z,1008.32
2019-05-22T11:59:37.976Z,1008.26
2019-05-22T12:00:37.940Z,1008.29
2019-05-22T12:01:38.033Z,1008.34
2019-05-22T12:02:37.948Z,1008.35
2019-05-22T12:03:37.905Z,1008.31
2019-05-22T12:04:47.789Z,1008.33
2019-05-22T12:05:38.891Z,1008.30
2019-05-22T12:06:37.877Z,1008.30